Hashtown, Indiana
Current Conditions -  °F | °C
As of 2:53 PM on Saturday 25 Oct 2014 (Local Time) from KBMG Reporting Station
Clear Clear  
Wind Chill: 75°   Ceiling: Unl
Heat Index: 75°   Visibility: 10mi
Dew Point: 53°   Wind: 8mph
Humidity: 46%   Direction: 290°WNW
Pressure: 29.97"   Gusts: NA
Location:  39.0306°N, 86.8553°W
Report Text: KBMG 251853Z 29007KT 10SM CLR 24/12 A2997 RMK AO2 SLP142 T02390117
Loading
Personal Weather Stations






























Interactive Weather Map
Tropical Storm Tracking
New forecast layout! Learn more

10-Day Weather Forecast

Advertisements
Track Severe Weather on mobile